sensor_id;sensor_type;location;lat;lon;timestamp;pressure;altitude;pressure_sealevel;temperature;humidity
56807;BME280;42687;42.524;12.052;2022-12-07T00:00:49;96446.69;;;6.41;100.00
56807;BME280;42687;42.524;12.052;2022-12-07T00:03:15;96441.19;;;6.28;100.00
56807;BME280;42687;42.524;12.052;2022-12-07T00:05:40;96439.88;;;6.20;100.00
56807;BME280;42687;42.524;12.052;2022-12-07T00:08:06;96439.06;;;6.17;100.00
56807;BME280;42687;42.524;12.052;2022-12-07T00:10:33;96442.81;;;6.12;100.00
56807;BME280;42687;42.524;12.052;2022-12-07T00:12:58;96439.84;;;6.00;100.00
56807;BME280;42687;42.524;12.052;2022-12-07T00:15:24;96431.56;;;5.91;100.00
56807;BME280;42687;42.524;12.052;2022-12-07T00:17:49;96425.75;;;5.84;100.00
56807;BME280;42687;42.524;12.052;2022-12-07T00:20:15;96424.13;;;5.81;100.00
56807;BME280;42687;42.524;12.052;2022-12-07T00:22:40;96421.78;;;5.75;100.00
56807;BME280;42687;42.524;12.052;2022-12-07T00:25:06;96427.16;;;5.72;100.00
56807;BME280;42687;42.524;12.052;2022-12-07T00:27:31;96422.44;;;5.80;100.00
56807;BME280;42687;42.524;12.052;2022-12-07T00:29:57;96408.22;;;5.88;100.00
56807;BME280;42687;42.524;12.052;2022-12-07T00:32:22;96418.50;;;5.91;100.00
56807;BME280;42687;42.524;12.052;2022-12-07T00:34:48;96410.53;;;5.94;100.00
56807;BME280;42687;42.524;12.052;2022-12-07T00:37:13;96410.28;;;6.00;100.00
56807;BME280;42687;42.524;12.052;2022-12-07T00:39:39;96411.06;;;6.02;100.00
56807;BME280;42687;42.524;12.052;2022-12-07T00:42:04;96411.91;;;6.03;100.00
56807;BME280;42687;42.524;12.052;2022-12-07T00:44:30;96415.38;;;6.03;100.00
56807;BME280;42687;42.524;12.052;2022-12-07T00:46:55;96411.13;;;6.00;100.00
56807;BME280;42687;42.524;12.052;2022-12-07T00:49:21;96419.91;;;5.99;100.00
56807;BME280;42687;42.524;12.052;2022-12-07T00:51:49;96407.47;;;6.05;100.00
56807;BME280;42687;42.524;12.052;2022-12-07T00:54:15;96404.50;;;6.12;100.00
56807;BME280;42687;42.524;12.052;2022-12-07T00:56:40;96402.44;;;6.19;100.00
56807;BME280;42687;42.524;12.052;2022-12-07T00:59:06;96409.03;;;6.28;100.00
56807;BME280;42687;42.524;12.052;2022-12-07T01:01:35;96411.28;;;6.36;100.00
56807;BME280;42687;42.524;12.052;2022-12-07T01:04:02;96410.63;;;6.49;100.00
56807;BME280;42687;42.524;12.052;2022-12-07T01:06:27;96405.56;;;6.64;100.00
56807;BME280;42687;42.524;12.052;2022-12-07T01:08:54;96403.97;;;6.79;100.00
56807;BME280;42687;42.524;12.052;2022-12-07T01:11:20;96406.22;;;6.87;100.00
56807;BME280;42687;42.524;12.052;2022-12-07T01:13:46;96405.22;;;6.89;100.00
56807;BME280;42687;42.524;12.052;2022-12-07T01:16:13;96414.53;;;6.95;100.00
56807;BME280;42687;42.524;12.052;2022-12-07T01:18:39;96409.00;;;7.01;100.00
56807;BME280;42687;42.524;12.052;2022-12-07T01:21:06;96404.25;;;7.09;100.00
56807;BME280;42687;42.524;12.052;2022-12-07T01:23:33;96406.56;;;7.15;100.00
56807;BME280;42687;42.524;12.052;2022-12-07T01:26:01;96416.47;;;7.26;100.00
56807;BME280;42687;42.524;12.052;2022-12-07T01:28:27;96415.09;;;7.37;100.00
56807;BME280;42687;42.524;12.052;2022-12-07T01:30:59;96339.94;;;7.05;100.00
56807;BME280;42687;42.524;12.052;2022-12-07T01:33:26;96409.00;;;7.54;100.00
56807;BME280;42687;42.524;12.052;2022-12-07T01:35:53;96411.28;;;7.60;100.00
56807;BME280;42687;42.524;12.052;2022-12-07T01:38:18;96414.50;;;7.65;100.00
56807;BME280;42687;42.524;12.052;2022-12-07T01:40:44;96411.66;;;7.70;100.00
56807;BME280;42687;42.524;12.052;2022-12-07T01:43:14;96401.28;;;7.68;100.00
56807;BME280;42687;42.524;12.052;2022-12-07T01:45:42;96404.03;;;7.65;100.00
56807;BME280;42687;42.524;12.052;2022-12-07T01:48:08;96392.44;;;7.53;100.00
56807;BME280;42687;42.524;12.052;2022-12-07T01:50:35;96385.22;;;7.41;100.00
56807;BME280;42687;42.524;12.052;2022-12-07T01:53:03;96385.00;;;7.28;100.00
56807;BME280;42687;42.524;12.052;2022-12-07T01:55:31;96390.69;;;7.18;100.00
56807;BME280;42687;42.524;12.052;2022-12-07T01:57:56;96394.16;;;7.01;100.00
56807;BME280;42687;42.524;12.052;2022-12-07T02:00:22;96384.69;;;6.81;100.00
56807;BME280;42687;42.524;12.052;2022-12-07T02:02:48;96382.22;;;6.61;100.00
56807;BME280;42687;42.524;12.052;2022-12-07T02:05:17;96385.41;;;6.48;100.00
56807;BME280;42687;42.524;12.052;2022-12-07T02:07:43;96378.72;;;6.43;100.00
56807;BME280;42687;42.524;12.052;2022-12-07T02:10:20;96380.78;;;6.36;100.00
56807;BME280;42687;42.524;12.052;2022-12-07T02:12:48;96389.81;;;6.29;100.00
56807;BME280;42687;42.524;12.052;2022-12-07T02:15:16;96377.22;;;6.20;100.00
56807;BME280;42687;42.524;12.052;2022-12-07T02:28:18;96373.47;;;6.06;100.00
56807;BME280;42687;42.524;12.052;2022-12-07T02:30:47;96369.88;;;6.09;100.00
56807;BME280;42687;42.524;12.052;2022-12-07T02:33:18;96371.47;;;6.11;100.00
56807;BME280;42687;42.524;12.052;2022-12-07T02:35:48;96360.03;;;6.14;100.00
56807;BME280;42687;42.524;12.052;2022-12-07T02:41:04;96361.31;;;6.24;100.00
56807;BME280;42687;42.524;12.052;2022-12-07T02:43:31;96369.50;;;6.16;100.00
56807;BME280;42687;42.524;12.052;2022-12-07T02:46:04;96366.41;;;6.08;100.00
56807;BME280;42687;42.524;12.052;2022-12-07T02:48:31;96362.03;;;6.09;100.00
56807;BME280;42687;42.524;12.052;2022-12-07T02:50:58;96361.66;;;6.16;100.00
56807;BME280;42687;42.524;12.052;2022-12-07T02:53:34;96355.25;;;6.24;100.00
56807;BME280;42687;42.524;12.052;2022-12-07T03:01:04;96353.09;;;5.94;100.00
56807;BME280;42687;42.524;12.052;2022-12-07T03:03:33;96356.28;;;5.81;100.00
56807;BME280;42687;42.524;12.052;2022-12-07T03:10:58;96353.88;;;5.77;100.00
56807;BME280;42687;42.524;12.052;2022-12-07T03:13:35;96358.63;;;5.88;100.00
56807;BME280;42687;42.524;12.052;2022-12-07T03:18:38;96282.81;;;5.72;100.00
56807;BME280;42687;42.524;12.052;2022-12-07T03:21:07;96352.16;;;6.15;100.00
56807;BME280;42687;42.524;12.052;2022-12-07T03:23:34;96291.63;;;5.88;100.00
56807;BME280;42687;42.524;12.052;2022-12-07T03:26:01;96346.50;;;6.25;100.00
56807;BME280;42687;42.524;12.052;2022-12-07T03:28:32;96336.19;;;6.22;100.00
56807;BME280;42687;42.524;12.052;2022-12-07T03:33:40;96341.97;;;6.28;100.00
56807;BME280;42687;42.524;12.052;2022-12-07T03:36:29;96337.84;;;6.42;100.00
56807;BME280;42687;42.524;12.052;2022-12-07T03:38:59;96342.03;;;6.46;100.00
56807;BME280;42687;42.524;12.052;2022-12-07T03:41:27;96335.00;;;6.46;100.00
56807;BME280;42687;42.524;12.052;2022-12-07T03:43:54;96322.66;;;6.50;100.00
56807;BME280;42687;42.524;12.052;2022-12-07T03:46:27;96328.50;;;6.55;100.00
56807;BME280;42687;42.524;12.052;2022-12-07T03:51:43;96322.66;;;6.67;100.00
56807;BME280;42687;42.524;12.052;2022-12-07T03:54:32;96331.13;;;6.73;100.00
56807;BME280;42687;42.524;12.052;2022-12-07T03:56:56;96331.66;;;6.62;100.00
56807;BME280;42687;42.524;12.052;2022-12-07T03:59:22;96334.72;;;6.53;100.00
56807;BME280;42687;42.524;12.052;2022-12-07T04:01:56;96332.31;;;6.48;100.00
56807;BME280;42687;42.524;12.052;2022-12-07T04:04:22;96320.72;;;6.54;100.00
56807;BME280;42687;42.524;12.052;2022-12-07T04:06:48;96320.13;;;6.66;100.00
56807;BME280;42687;42.524;12.052;2022-12-07T04:09:14;96325.53;;;6.80;100.00
56807;BME280;42687;42.524;12.052;2022-12-07T04:11:39;96318.50;;;6.98;100.00
56807;BME280;42687;42.524;12.052;2022-12-07T04:14:05;96321.34;;;7.11;100.00
56807;BME280;42687;42.524;12.052;2022-12-07T04:16:50;96320.09;;;7.18;100.00
56807;BME280;42687;42.524;12.052;2022-12-07T04:19:17;96308.63;;;7.21;100.00
56807;BME280;42687;42.524;12.052;2022-12-07T04:21:43;96282.22;;;7.10;100.00
56807;BME280;42687;42.524;12.052;2022-12-07T04:24:09;96310.41;;;7.21;100.00
56807;BME280;42687;42.524;12.052;2022-12-07T04:26:34;96307.97;;;7.17;100.00
56807;BME280;42687;42.524;12.052;2022-12-07T04:29:00;96306.56;;;7.10;100.00
56807;BME280;42687;42.524;12.052;2022-12-07T04:31:25;96306.03;;;7.04;100.00
56807;BME280;42687;42.524;12.052;2022-12-07T04:33:51;96248.28;;;6.57;100.00
56807;BME280;42687;42.524;12.052;2022-12-07T04:36:16;96309.81;;;6.98;100.00
56807;BME280;42687;42.524;12.052;2022-12-07T04:38:42;96305.22;;;7.03;100.00
56807;BME280;42687;42.524;12.052;2022-12-07T04:41:08;96308.66;;;7.04;100.00
56807;BME280;42687;42.524;12.052;2022-12-07T04:43:34;96297.41;;;7.01;100.00
56807;BME280;42687;42.524;12.052;2022-12-07T04:46:00;96304.59;;;6.98;100.00
56807;BME280;42687;42.524;12.052;2022-12-07T04:48:25;96296.22;;;6.91;100.00
56807;BME280;42687;42.524;12.052;2022-12-07T04:50:51;96293.84;;;6.87;100.00
56807;BME280;42687;42.524;12.052;2022-12-07T04:53:16;96289.38;;;6.89;100.00
56807;BME280;42687;42.524;12.052;2022-12-07T04:55:42;96293.09;;;6.84;100.00
56807;BME280;42687;42.524;12.052;2022-12-07T04:58:07;96295.06;;;6.79;100.00
56807;BME280;42687;42.524;12.052;2022-12-07T05:00:32;96296.28;;;6.72;100.00
56807;BME280;42687;42.524;12.052;2022-12-07T05:02:58;96293.75;;;6.71;100.00
56807;BME280;42687;42.524;12.052;2022-12-07T05:05:23;96298.16;;;6.70;100.00
56807;BME280;42687;42.524;12.052;2022-12-07T05:07:49;96297.78;;;6.78;100.00
56807;BME280;42687;42.524;12.052;2022-12-07T05:10:15;96302.66;;;6.84;100.00
56807;BME280;42687;42.524;12.052;2022-12-07T05:12:40;96303.53;;;6.84;100.00
56807;BME280;42687;42.524;12.052;2022-12-07T05:15:06;96305.38;;;6.82;100.00
56807;BME280;42687;42.524;12.052;2022-12-07T05:17:31;96300.84;;;6.86;100.00
56807;BME280;42687;42.524;12.052;2022-12-07T05:19:57;96285.78;;;6.91;100.00
56807;BME280;42687;42.524;12.052;2022-12-07T05:22:22;96297.75;;;6.95;100.00
56807;BME280;42687;42.524;12.052;2022-12-07T05:24:50;96290.75;;;6.96;100.00
56807;BME280;42687;42.524;12.052;2022-12-07T05:27:16;96286.59;;;6.92;100.00
56807;BME280;42687;42.524;12.052;2022-12-07T05:29:41;96287.78;;;6.86;100.00
56807;BME280;42687;42.524;12.052;2022-12-07T05:32:07;96294.06;;;6.82;100.00
56807;BME280;42687;42.524;12.052;2022-12-07T05:34:32;96292.47;;;6.79;100.00
56807;BME280;42687;42.524;12.052;2022-12-07T05:36:58;96298.44;;;6.81;100.00
56807;BME280;42687;42.524;12.052;2022-12-07T05:39:23;96301.84;;;6.83;100.00
56807;BME280;42687;42.524;12.052;2022-12-07T05:41:49;96299.06;;;6.87;100.00
56807;BME280;42687;42.524;12.052;2022-12-07T05:44:33;96298.91;;;6.90;100.00
56807;BME280;42687;42.524;12.052;2022-12-07T05:46:58;96298.13;;;6.88;100.00
56807;BME280;42687;42.524;12.052;2022-12-07T05:49:24;96297.31;;;6.87;100.00
56807;BME280;42687;42.524;12.052;2022-12-07T05:51:49;96306.81;;;6.88;100.00
56807;BME280;42687;42.524;12.052;2022-12-07T05:54:15;96272.56;;;6.59;100.00
56807;BME280;42687;42.524;12.052;2022-12-07T05:56:41;96305.06;;;6.89;100.00
56807;BME280;42687;42.524;12.052;2022-12-07T05:59:07;96305.91;;;6.89;100.00
56807;BME280;42687;42.524;12.052;2022-12-07T06:01:49;96305.06;;;6.89;100.00
56807;BME280;42687;42.524;12.052;2022-12-07T06:04:15;96302.28;;;6.92;100.00
56807;BME280;42687;42.524;12.052;2022-12-07T06:06:40;96309.13;;;6.94;100.00
56807;BME280;42687;42.524;12.052;2022-12-07T06:09:06;96309.81;;;6.98;100.00
56807;BME280;42687;42.524;12.052;2022-12-07T06:11:31;96306.13;;;7.02;100.00
56807;BME280;42687;42.524;12.052;2022-12-07T06:14:15;96305.97;;;7.05;100.00
56807;BME280;42687;42.524;12.052;2022-12-07T06:16:40;96308.50;;;7.07;100.00
56807;BME280;42687;42.524;12.052;2022-12-07T06:19:06;96308.50;;;7.07;100.00
56807;BME280;42687;42.524;12.052;2022-12-07T06:21:31;96300.72;;;7.05;100.00
56807;BME280;42687;42.524;12.052;2022-12-07T06:23:57;96313.59;;;7.10;100.00
56807;BME280;42687;42.524;12.052;2022-12-07T06:26:22;96314.19;;;7.15;100.00
56807;BME280;42687;42.524;12.052;2022-12-07T06:28:48;96303.47;;;7.20;100.00
56807;BME280;42687;42.524;12.052;2022-12-07T06:31:13;96306.00;;;7.21;100.00
56807;BME280;42687;42.524;12.052;2022-12-07T06:33:39;96311.16;;;7.23;100.00
56807;BME280;42687;42.524;12.052;2022-12-07T06:36:04;96313.94;;;7.20;100.00
56807;BME280;42687;42.524;12.052;2022-12-07T06:38:30;96309.72;;;7.17;100.00
56807;BME280;42687;42.524;12.052;2022-12-07T06:40:55;96310.56;;;7.17;100.00
56807;BME280;42687;42.524;12.052;2022-12-07T06:43:21;96308.63;;;7.21;100.00
56807;BME280;42687;42.524;12.052;2022-12-07T06:45:46;96290.22;;;7.23;100.00
56807;BME280;42687;42.524;12.052;2022-12-07T06:48:12;96301.34;;;7.44;100.00
56807;BME280;42687;42.524;12.052;2022-12-07T06:50:37;96306.94;;;7.54;100.00
56807;BME280;42687;42.524;12.052;2022-12-07T06:53:03;96305.38;;;7.67;100.00
56807;BME280;42687;42.524;12.052;2022-12-07T06:55:28;96304.69;;;7.79;100.00
56807;BME280;42687;42.524;12.052;2022-12-07T06:57:54;96308.72;;;7.85;100.00
56807;BME280;42687;42.524;12.052;2022-12-07T07:00:19;96297.00;;;7.92;100.00
56807;BME280;42687;42.524;12.052;2022-12-07T07:02:45;96301.94;;;7.98;100.00
56807;BME280;42687;42.524;12.052;2022-12-07T07:05:10;96309.50;;;8.03;100.00
56807;BME280;42687;42.524;12.052;2022-12-07T07:07:35;96305.69;;;8.09;100.00
56807;BME280;42687;42.524;12.052;2022-12-07T07:10:01;96300.03;;;8.16;100.00
56807;BME280;42687;42.524;12.052;2022-12-07T07:12:27;96309.25;;;8.24;100.00
56807;BME280;42687;42.524;12.052;2022-12-07T07:14:52;96311.59;;;8.28;100.00
56807;BME280;42687;42.524;12.052;2022-12-07T07:17:17;96307.88;;;8.32;100.00
56807;BME280;42687;42.524;12.052;2022-12-07T07:19:43;96311.00;;;8.39;100.00
56807;BME280;42687;42.524;12.052;2022-12-07T07:22:08;96318.22;;;8.51;100.00
56807;BME280;42687;42.524;12.052;2022-12-07T07:24:34;96318.63;;;8.60;100.00
56807;BME280;42687;42.524;12.052;2022-12-07T07:26:59;96318.19;;;8.67;100.00
56807;BME280;42687;42.524;12.052;2022-12-07T07:29:25;96309.09;;;8.73;100.00
56807;BME280;42687;42.524;12.052;2022-12-07T07:31:50;96308.91;;;8.76;100.00
56807;BME280;42687;42.524;12.052;2022-12-07T07:34:16;96318.38;;;8.79;100.00
56807;BME280;42687;42.524;12.052;2022-12-07T07:36:41;96314.41;;;8.88;100.00
56807;BME280;42687;42.524;12.052;2022-12-07T07:39:07;96326.53;;;9.05;100.00
56807;BME280;42687;42.524;12.052;2022-12-07T07:41:32;96311.75;;;9.18;100.00
56807;BME280;42687;42.524;12.052;2022-12-07T07:43:58;96322.03;;;9.21;100.00
56807;BME280;42687;42.524;12.052;2022-12-07T07:46:23;96324.75;;;9.20;100.00
56807;BME280;42687;42.524;12.052;2022-12-07T07:48:49;96327.63;;;9.15;100.00
56807;BME280;42687;42.524;12.052;2022-12-07T07:51:14;96323.91;;;9.05;100.00
56807;BME280;42687;42.524;12.052;2022-12-07T07:53:39;96333.03;;;8.97;100.00
56807;BME280;42687;42.524;12.052;2022-12-07T07:56:05;96269.25;;;8.52;100.00
56807;BME280;42687;42.524;12.052;2022-12-07T07:58:30;96326.13;;;9.11;100.00
56807;BME280;42687;42.524;12.052;2022-12-07T08:00:56;96333.13;;;9.41;100.00
56807;BME280;42687;42.524;12.052;2022-12-07T08:03:21;96329.09;;;9.64;100.00
56807;BME280;42687;42.524;12.052;2022-12-07T08:05:47;96337.44;;;9.85;100.00
56807;BME280;42687;42.524;12.052;2022-12-07T08:08:12;96338.44;;;9.97;100.00
56807;BME280;42687;42.524;12.052;2022-12-07T08:10:38;96331.94;;;10.02;100.00
56807;BME280;42687;42.524;12.052;2022-12-07T08:13:03;96337.03;;;10.06;100.00
56807;BME280;42687;42.524;12.052;2022-12-07T08:15:45;96334.00;;;10.12;100.00
56807;BME280;42687;42.524;12.052;2022-12-07T08:18:11;96333.63;;;10.18;100.00
56807;BME280;42687;42.524;12.052;2022-12-07T08:20:37;96332.03;;;10.15;100.00
56807;BME280;42687;42.524;12.052;2022-12-07T08:23:03;96336.47;;;10.15;100.00
56807;BME280;42687;42.524;12.052;2022-12-07T08:25:28;96324.75;;;10.48;100.00
56807;BME280;42687;42.524;12.052;2022-12-07T08:27:54;96324.38;;;11.07;100.00
56807;BME280;42687;42.524;12.052;2022-12-07T08:30:19;96326.41;;;11.68;100.00
56807;BME280;42687;42.524;12.052;2022-12-07T08:32:45;96321.81;;;12.22;100.00
56807;BME280;42687;42.524;12.052;2022-12-07T08:35:11;96323.03;;;12.53;100.00
56807;BME280;42687;42.524;12.052;2022-12-07T08:37:38;96321.44;;;12.99;100.00
56807;BME280;42687;42.524;12.052;2022-12-07T08:40:03;96327.22;;;13.04;100.00
56807;BME280;42687;42.524;12.052;2022-12-07T08:42:29;96332.03;;;12.75;100.00
56807;BME280;42687;42.524;12.052;2022-12-07T08:45:05;96332.41;;;12.33;100.00
56807;BME280;42687;42.524;12.052;2022-12-07T08:47:31;96331.72;;;11.92;100.00
56807;BME280;42687;42.524;12.052;2022-12-07T08:49:57;96337.97;;;11.65;100.00
56807;BME280;42687;42.524;12.052;2022-12-07T08:52:29;96344.97;;;11.41;100.00
56807;BME280;42687;42.524;12.052;2022-12-07T08:54:55;96337.25;;;11.25;100.00
56807;BME280;42687;42.524;12.052;2022-12-07T08:57:21;96341.63;;;11.11;100.00
56807;BME280;42687;42.524;12.052;2022-12-07T08:59:46;96340.25;;;11.06;100.00
56807;BME280;42687;42.524;12.052;2022-12-07T09:02:12;96345.75;;;11.02;100.00
56807;BME280;42687;42.524;12.052;2022-12-07T09:04:37;96344.56;;;10.94;100.00
56807;BME280;42687;42.524;12.052;2022-12-07T09:07:03;96332.75;;;10.87;100.00
56807;BME280;42687;42.524;12.052;2022-12-07T09:09:29;96342.75;;;10.81;100.00
56807;BME280;42687;42.524;12.052;2022-12-07T09:11:54;96342.84;;;10.80;100.00
56807;BME280;42687;42.524;12.052;2022-12-07T09:14:21;96333.16;;;10.80;100.00
56807;BME280;42687;42.524;12.052;2022-12-07T09:16:46;96290.53;;;10.62;100.00
56807;BME280;42687;42.524;12.052;2022-12-07T09:19:12;96323.63;;;10.92;100.00
56807;BME280;42687;42.524;12.052;2022-12-07T09:21:37;96289.72;;;10.75;100.00
56807;BME280;42687;42.524;12.052;2022-12-07T09:24:03;96329.34;;;11.12;100.00
56807;BME280;42687;42.524;12.052;2022-12-07T09:26:28;96334.50;;;11.39;100.00
56807;BME280;42687;42.524;12.052;2022-12-07T09:28:54;96343.13;;;11.80;100.00
56807;BME280;42687;42.524;12.052;2022-12-07T09:31:19;96333.00;;;12.12;100.00
56807;BME280;42687;42.524;12.052;2022-12-07T09:33:45;96337.28;;;12.50;100.00
56807;BME280;42687;42.524;12.052;2022-12-07T09:36:10;96331.31;;;13.08;100.00
56807;BME280;42687;42.524;12.052;2022-12-07T09:38:36;96338.44;;;13.89;100.00
56807;BME280;42687;42.524;12.052;2022-12-07T09:41:05;96323.03;;;14.83;100.00
56807;BME280;42687;42.524;12.052;2022-12-07T09:43:32;96333.88;;;15.64;100.00
56807;BME280;42687;42.524;12.052;2022-12-07T09:45:58;96324.00;;;15.88;100.00
56807;BME280;42687;42.524;12.052;2022-12-07T09:48:31;96329.34;;;15.76;100.00
56807;BME280;42687;42.524;12.052;2022-12-07T09:50:57;96330.59;;;15.51;100.00
56807;BME280;42687;42.524;12.052;2022-12-07T09:53:28;96326.91;;;15.63;100.00
56807;BME280;42687;42.524;12.052;2022-12-07T09:55:55;96324.16;;;15.96;100.00
56807;BME280;42687;42.524;12.052;2022-12-07T09:58:24;96326.22;;;15.82;100.00
56807;BME280;42687;42.524;12.052;2022-12-07T10:01:28;96319.97;;;15.41;100.00
56807;BME280;42687;42.524;12.052;2022-12-07T10:06:14;96323.47;;;14.44;100.00
56807;BME280;42687;42.524;12.052;2022-12-07T10:08:40;96324.97;;;14.03;100.00
56807;BME280;42687;42.524;12.052;2022-12-07T10:11:06;96328.94;;;13.63;100.00
56807;BME280;42687;42.524;12.052;2022-12-07T10:16:01;96316.97;;;13.35;100.00
56807;BME280;42687;42.524;12.052;2022-12-07T10:18:33;96314.78;;;13.29;100.00
56807;BME280;42687;42.524;12.052;2022-12-07T10:21:05;96314.31;;;13.24;100.00
56807;BME280;42687;42.524;12.052;2022-12-07T10:23:32;96312.63;;;13.23;100.00
56807;BME280;42687;42.524;12.052;2022-12-07T10:25:59;96320.19;;;13.27;100.00
56807;BME280;42687;42.524;12.052;2022-12-07T10:28:27;96317.31;;;13.19;100.00
56807;BME280;42687;42.524;12.052;2022-12-07T10:33:28;96313.03;;;12.94;100.00
56807;BME280;42687;42.524;12.052;2022-12-07T10:35:54;96314.53;;;12.85;100.00
56807;BME280;42687;42.524;12.052;2022-12-07T10:38:20;96308.56;;;12.83;100.00
56807;BME280;42687;42.524;12.052;2022-12-07T10:40:46;96303.91;;;12.87;100.00
56807;BME280;42687;42.524;12.052;2022-12-07T10:48:35;96296.94;;;12.97;100.00
56807;BME280;42687;42.524;12.052;2022-12-07T10:53:42;96294.59;;;13.05;100.00
56807;BME280;42687;42.524;12.052;2022-12-07T10:59:17;96286.88;;;12.91;100.00
56807;BME280;42687;42.524;12.052;2022-12-07T11:11:48;96263.25;;;12.65;100.00
56807;BME280;42687;42.524;12.052;2022-12-07T11:17:05;96255.53;;;12.75;100.00
56807;BME280;42687;42.524;12.052;2022-12-07T11:19:39;96255.59;;;12.97;100.00
56807;BME280;42687;42.524;12.052;2022-12-07T11:22:24;96247.34;;;13.25;100.00
56807;BME280;42687;42.524;12.052;2022-12-07T11:25:08;96255.09;;;13.50;100.00
56807;BME280;42687;42.524;12.052;2022-12-07T11:30:27;96243.16;;;13.90;100.00
56807;BME280;42687;42.524;12.052;2022-12-07T11:33:09;96247.84;;;13.98;100.00
56807;BME280;42687;42.524;12.052;2022-12-07T11:38:15;96236.50;;;14.51;100.00
56807;BME280;42687;42.524;12.052;2022-12-07T11:40:50;96229.13;;;14.66;100.00
56807;BME280;42687;42.524;12.052;2022-12-07T11:43:28;96231.66;;;14.67;100.00
56807;BME280;42687;42.524;12.052;2022-12-07T11:48:24;96227.84;;;14.16;100.00
56807;BME280;42687;42.524;12.052;2022-12-07T11:50:56;96221.06;;;13.91;100.00
56807;BME280;42687;42.524;12.052;2022-12-07T11:53:27;96218.69;;;13.65;100.00
56807;BME280;42687;42.524;12.052;2022-12-07T11:55:57;96226.16;;;13.49;100.00
56807;BME280;42687;42.524;12.052;2022-12-07T12:01:06;96218.22;;;13.38;100.00
56807;BME280;42687;42.524;12.052;2022-12-07T12:03:35;96215.78;;;13.34;100.00
56807;BME280;42687;42.524;12.052;2022-12-07T12:06:03;96215.31;;;13.29;100.00
56807;BME280;42687;42.524;12.052;2022-12-07T12:08:51;96200.66;;;13.25;100.00
56807;BME280;42687;42.524;12.052;2022-12-07T12:19:25;96202.06;;;12.95;100.00
56807;BME280;42687;42.524;12.052;2022-12-07T12:21:54;96200.13;;;12.75;100.00
56807;BME280;42687;42.524;12.052;2022-12-07T12:24:25;96204.91;;;12.70;100.00
56807;BME280;42687;42.524;12.052;2022-12-07T12:27:01;96205.59;;;12.60;100.00
56807;BME280;42687;42.524;12.052;2022-12-07T12:29:31;96203.28;;;12.56;100.00
56807;BME280;42687;42.524;12.052;2022-12-07T12:32:06;96204.28;;;12.55;100.00
56807;BME280;42687;42.524;12.052;2022-12-07T12:36:59;96199.00;;;12.55;100.00
56807;BME280;42687;42.524;12.052;2022-12-07T12:39:25;96196.44;;;12.53;100.00
56807;BME280;42687;42.524;12.052;2022-12-07T12:41:51;96192.03;;;12.54;100.00
56807;BME280;42687;42.524;12.052;2022-12-07T12:46:47;96187.72;;;12.52;100.00
56807;BME280;42687;42.524;12.052;2022-12-07T12:51:47;96184.06;;;12.42;100.00
56807;BME280;42687;42.524;12.052;2022-12-07T12:54:14;96190.66;;;12.37;100.00
56807;BME280;42687;42.524;12.052;2022-12-07T12:56:42;96184.50;;;12.25;100.00
56807;BME280;42687;42.524;12.052;2022-12-07T13:01:46;96192.34;;;11.76;100.00
56807;BME280;42687;42.524;12.052;2022-12-07T13:04:21;96194.84;;;11.54;100.00
56807;BME280;42687;42.524;12.052;2022-12-07T13:06:49;96202.16;;;11.24;100.00
56807;BME280;42687;42.524;12.052;2022-12-07T13:09:19;96190.81;;;10.98;100.00
56807;BME280;42687;42.524;12.052;2022-12-07T13:11:46;96179.56;;;10.83;100.00
56807;BME280;42687;42.524;12.052;2022-12-07T13:16:56;96180.31;;;10.72;100.00
56807;BME280;42687;42.524;12.052;2022-12-07T13:24:49;96174.53;;;10.80;100.00
56807;BME280;42687;42.524;12.052;2022-12-07T13:27:19;96175.13;;;10.83;100.00
56807;BME280;42687;42.524;12.052;2022-12-07T13:29:45;96176.72;;;10.86;100.00
56807;BME280;42687;42.524;12.052;2022-12-07T13:32:45;96171.97;;;10.91;100.00
56807;BME280;42687;42.524;12.052;2022-12-07T13:35:26;96180.41;;;10.96;100.00
56807;BME280;42687;42.524;12.052;2022-12-07T13:37:49;96174.09;;;10.99;100.00
56807;BME280;42687;42.524;12.052;2022-12-07T13:40:17;96169.47;;;11.02;100.00
56807;BME280;42687;42.524;12.052;2022-12-07T13:42:43;96170.28;;;11.03;100.00
56807;BME280;42687;42.524;12.052;2022-12-07T13:45:28;96176.41;;;11.04;100.00
56807;BME280;42687;42.524;12.052;2022-12-07T13:48:21;96182.09;;;10.97;100.00
56807;BME280;42687;42.524;12.052;2022-12-07T13:50:54;96180.72;;;10.92;100.00
56807;BME280;42687;42.524;12.052;2022-12-07T13:53:20;96175.88;;;10.85;100.00
56807;BME280;42687;42.524;12.052;2022-12-07T13:55:45;96172.81;;;10.79;100.00
56807;BME280;42687;42.524;12.052;2022-12-07T13:58:11;96163.25;;;10.65;100.00
56807;BME280;42687;42.524;12.052;2022-12-07T14:00:37;96168.09;;;10.71;100.00
56807;BME280;42687;42.524;12.052;2022-12-07T14:05:37;96171.03;;;10.66;100.00
56807;BME280;42687;42.524;12.052;2022-12-07T14:10:36;96173.88;;;10.63;100.00
56807;BME280;42687;42.524;12.052;2022-12-07T14:13:03;96167.78;;;10.63;100.00
56807;BME280;42687;42.524;12.052;2022-12-07T14:15:49;96163.66;;;10.59;100.00
56807;BME280;42687;42.524;12.052;2022-12-07T14:18:25;96163.88;;;10.56;100.00
56807;BME280;42687;42.524;12.052;2022-12-07T14:20:52;96177.97;;;10.55;100.00
56807;BME280;42687;42.524;12.052;2022-12-07T14:23:27;96172.28;;;10.48;100.00
56807;BME280;42687;42.524;12.052;2022-12-07T14:25:53;96174.28;;;10.44;100.00
56807;BME280;42687;42.524;12.052;2022-12-07T14:28:26;96174.56;;;10.40;100.00
56807;BME280;42687;42.524;12.052;2022-12-07T14:30:52;96171.22;;;10.38;100.00
56807;BME280;42687;42.524;12.052;2022-12-07T14:33:17;96183.41;;;10.39;100.00